createdAt,value
2018-10-19T00:02:41.640Z,21.80
2018-10-19T00:05:24.153Z,21.00
2018-10-19T00:08:07.358Z,19.63
2018-10-19T00:10:49.997Z,21.13
2018-10-19T00:13:32.702Z,20.33
2018-10-19T00:16:15.520Z,21.33
2018-10-19T00:18:58.346Z,20.77
2018-10-19T00:21:41.787Z,22.00
2018-10-19T00:24:24.418Z,19.27
2018-10-19T00:27:07.555Z,20.27
2018-10-19T00:29:50.615Z,19.40
2018-10-19T00:32:33.849Z,19.50
2018-10-19T00:35:16.689Z,19.23
2018-10-19T00:37:59.903Z,18.97
2018-10-19T00:40:42.714Z,18.90
2018-10-19T00:43:25.409Z,19.37
2018-10-19T00:46:08.752Z,17.90
2018-10-19T00:48:51.473Z,19.13
2018-10-19T00:51:34.180Z,18.30
2018-10-19T00:54:18.049Z,18.63
2018-10-19T00:57:01.894Z,21.30
2018-10-19T00:59:44.478Z,18.93
2018-10-19T01:02:28.050Z,19.80
2018-10-19T01:05:10.778Z,18.63
2018-10-19T01:07:53.462Z,19.67
2018-10-19T01:10:37.124Z,19.73
2018-10-19T01:13:20.453Z,19.33
2018-10-19T01:16:03.517Z,20.17
2018-10-19T01:18:46.750Z,19.60
2018-10-19T01:21:29.286Z,19.50
2018-10-19T01:24:12.084Z,23.50
2018-10-19T01:26:55.364Z,20.30
2018-10-19T01:29:38.856Z,20.90
2018-10-19T01:32:22.502Z,20.67
2018-10-19T01:35:05.739Z,20.70
2018-10-19T01:37:48.025Z,21.30
2018-10-19T01:40:31.261Z,20.70
2018-10-19T01:43:14.757Z,19.93
2018-10-19T01:45:58.849Z,22.40
2018-10-19T01:48:41.941Z,22.90
2018-10-19T01:51:25.075Z,21.00
2018-10-19T01:54:08.704Z,21.60
2018-10-19T01:56:52.097Z,20.30
2018-10-19T01:59:35.349Z,21.60
2018-10-19T02:02:19.198Z,21.07
2018-10-19T02:05:01.781Z,20.03
2018-10-19T02:07:44.904Z,21.53
2018-10-19T02:10:28.262Z,21.13
2018-10-19T02:13:11.414Z,20.17
2018-10-19T02:15:55.029Z,23.37
2018-10-19T02:18:38.002Z,22.10
2018-10-19T02:21:20.566Z,20.07
2018-10-19T02:24:04.180Z,20.07
2018-10-19T02:26:47.001Z,20.17
2018-10-19T02:29:30.237Z,19.77
2018-10-19T02:32:14.310Z,20.40
2018-10-19T02:34:57.882Z,21.63
2018-10-19T02:37:41.444Z,20.73
2018-10-19T02:40:43.858Z,19.57
2018-10-19T02:43:26.337Z,19.73
2018-10-19T02:46:09.670Z,20.03
2018-10-19T02:48:53.409Z,19.90
2018-10-19T02:51:37.317Z,18.63
2018-10-19T02:54:19.971Z,19.47
2018-10-19T02:57:03.715Z,21.07
2018-10-19T02:59:46.621Z,18.30
2018-10-19T03:02:29.543Z,20.10
2018-10-19T03:05:13.479Z,19.53
2018-10-19T03:07:56.707Z,19.43
2018-10-19T03:10:39.540Z,19.40
2018-10-19T03:13:22.977Z,22.80
2018-10-19T03:16:05.758Z,19.43
2018-10-19T03:18:48.611Z,21.13
2018-10-19T03:21:31.912Z,21.97
2018-10-19T03:24:15.083Z,24.90
2018-10-19T03:26:57.889Z,23.40
2018-10-19T03:29:41.055Z,21.90
2018-10-19T03:32:23.918Z,25.90
2018-10-19T03:35:07.663Z,23.30
2018-10-19T03:37:50.682Z,21.70
2018-10-19T03:40:33.417Z,22.07
2018-10-19T03:43:16.613Z,24.37
2018-10-19T03:45:59.953Z,23.10
2018-10-19T03:48:43.083Z,23.20
2018-10-19T03:51:26.190Z,20.17
2018-10-19T03:54:08.949Z,24.27
2018-10-19T03:56:51.920Z,23.07
2018-10-19T03:59:35.348Z,24.23
2018-10-19T04:02:17.777Z,23.10
2018-10-19T04:05:00.632Z,22.70
2018-10-19T04:07:43.518Z,25.97
2018-10-19T04:10:26.434Z,27.37
2018-10-19T04:13:09.270Z,31.30
2018-10-19T04:15:52.157Z,35.57
2018-10-19T04:18:35.069Z,34.70
2018-10-19T04:21:18.111Z,31.97
2018-10-19T04:24:01.693Z,30.77
2018-10-19T04:26:44.145Z,34.87
2018-10-19T04:29:27.827Z,34.07
2018-10-19T04:32:10.817Z,32.67
2018-10-19T04:34:53.827Z,36.53
2018-10-19T04:37:36.940Z,35.50
2018-10-19T04:40:21.714Z,31.07
2018-10-19T04:43:04.424Z,36.13
2018-10-19T04:45:48.205Z,37.63
2018-10-19T04:48:31.379Z,34.30
2018-10-19T04:51:14.455Z,36.97
2018-10-19T04:53:57.738Z,34.00
2018-10-19T04:56:40.374Z,36.87
2018-10-19T04:59:23.582Z,35.50
2018-10-19T05:02:06.900Z,36.87
2018-10-19T05:04:50.208Z,36.10
2018-10-19T05:07:33.045Z,37.07
2018-10-19T05:10:16.408Z,36.63
2018-10-19T05:12:59.278Z,36.37
2018-10-19T05:15:42.142Z,39.17
2018-10-19T05:18:25.185Z,37.37
2018-10-19T05:21:08.086Z,36.57
2018-10-19T05:23:51.423Z,36.63
2018-10-19T05:26:34.104Z,35.03
2018-10-19T05:29:17.335Z,35.03
2018-10-19T05:32:00.499Z,35.57
2018-10-19T05:34:43.954Z,33.93
2018-10-19T05:37:26.505Z,31.97
2018-10-19T05:40:10.105Z,32.87
2018-10-19T05:42:54.008Z,33.43
2018-10-19T05:45:37.663Z,31.90
2018-10-19T05:48:20.973Z,31.97
2018-10-19T05:51:04.877Z,32.57
2018-10-19T05:53:47.949Z,31.60
2018-10-19T05:56:31.025Z,31.73
2018-10-19T05:59:14.113Z,32.00
2018-10-19T06:01:57.627Z,33.17
2018-10-19T06:04:40.805Z,32.20
2018-10-19T06:07:24.845Z,29.90
2018-10-19T06:10:07.989Z,32.40
2018-10-19T06:12:50.845Z,33.10
2018-10-19T06:15:34.157Z,31.67
2018-10-19T06:18:16.750Z,31.87
2018-10-19T06:21:00.117Z,29.70
2018-10-19T06:23:43.321Z,31.20
2018-10-19T06:26:26.019Z,30.93
2018-10-19T06:29:08.458Z,27.03
2018-10-19T06:31:51.449Z,27.00
2018-10-19T06:34:34.245Z,25.03
2018-10-19T06:37:16.787Z,26.00
2018-10-19T06:39:59.411Z,27.40
2018-10-19T06:42:42.618Z,28.10
2018-10-19T06:45:25.836Z,25.27
2018-10-19T06:48:08.782Z,24.30
2018-10-19T06:50:52.299Z,25.83
2018-10-19T06:53:34.689Z,25.53
2018-10-19T06:56:17.683Z,24.33
2018-10-19T06:59:01.272Z,24.60
2018-10-19T07:01:45.525Z,23.40
2018-10-19T07:04:29.029Z,23.87
2018-10-19T07:07:12.703Z,22.53
2018-10-19T07:09:56.001Z,20.00
2018-10-19T07:12:38.856Z,19.97
2018-10-19T07:15:21.420Z,22.20
2018-10-19T07:18:06.873Z,21.20
2018-10-19T07:20:50.120Z,19.23
2018-10-19T07:23:32.741Z,18.23
2018-10-19T07:26:15.839Z,18.63
2018-10-19T07:28:59.578Z,15.93
2018-10-19T07:31:42.849Z,18.20
2018-10-19T07:34:25.966Z,17.50
2018-10-19T07:37:08.813Z,17.33
2018-10-19T07:39:51.620Z,19.37
2018-10-19T07:42:34.643Z,19.63
2018-10-19T07:45:17.973Z,18.53
2018-10-19T07:48:00.615Z,14.37
2018-10-19T07:50:44.535Z,15.77
2018-10-19T07:53:27.335Z,15.07
2018-10-19T07:56:10.000Z,15.70
2018-10-19T07:58:52.867Z,15.33
2018-10-19T08:01:35.289Z,14.03
2018-10-19T08:04:20.764Z,14.07
2018-10-19T08:07:03.380Z,13.83
2018-10-19T08:09:46.578Z,13.83
2018-10-19T08:12:29.957Z,12.47
2018-10-19T08:15:13.025Z,11.37
2018-10-19T08:17:55.443Z,12.07
2018-10-19T08:20:38.985Z,11.47
2018-10-19T08:23:22.197Z,11.37
2018-10-19T08:26:05.082Z,13.30
2018-10-19T08:28:48.049Z,11.23
2018-10-19T08:31:30.241Z,10.90
2018-10-19T08:34:13.700Z,11.23
2018-10-19T08:36:56.398Z,10.70
2018-10-19T08:39:38.945Z,10.10
2018-10-19T08:42:21.835Z,8.73
2018-10-19T08:45:04.591Z,9.90
2018-10-19T08:47:48.088Z,9.83
2018-10-19T08:50:32.162Z,9.50
2018-10-19T08:53:15.556Z,10.33
2018-10-19T08:55:58.481Z,10.33
2018-10-19T08:58:41.392Z,9.60
2018-10-19T09:01:24.517Z,9.43
2018-10-19T09:04:07.297Z,9.77
2018-10-19T09:06:50.650Z,9.80
2018-10-19T09:09:33.465Z,11.27
2018-10-19T09:12:16.727Z,10.20
2018-10-19T09:15:09.513Z,10.20
2018-10-19T09:17:52.169Z,10.10
2018-10-19T09:20:35.355Z,9.57
2018-10-19T09:23:27.145Z,10.33
2018-10-19T09:26:09.449Z,8.83
2018-10-19T09:28:53.302Z,10.00
2018-10-19T09:31:36.368Z,10.13
2018-10-19T09:34:19.405Z,9.77
2018-10-19T09:37:03.661Z,8.77
2018-10-19T09:39:46.388Z,9.23
2018-10-19T09:42:29.505Z,9.63
2018-10-19T09:45:12.716Z,9.57
2018-10-19T09:47:55.286Z,8.57
2018-10-19T09:50:38.457Z,8.73
2018-10-19T09:53:21.704Z,8.33
2018-10-19T09:56:05.467Z,7.90
2018-10-19T09:58:48.334Z,8.00
2018-10-19T10:01:31.177Z,9.20
2018-10-19T10:04:14.094Z,8.70
2018-10-19T10:06:56.946Z,9.30
2018-10-19T10:09:40.127Z,7.70
2018-10-19T10:12:27.161Z,9.00
2018-10-19T10:15:10.331Z,7.90
2018-10-19T10:17:52.585Z,8.40
2018-10-19T10:20:35.193Z,7.73
2018-10-19T10:23:27.785Z,9.43
2018-10-19T10:26:18.809Z,8.63
2018-10-19T10:29:01.290Z,8.73
2018-10-19T10:31:44.618Z,8.97
2018-10-19T10:34:27.824Z,8.73
2018-10-19T10:37:10.643Z,9.30
2018-10-19T10:39:53.582Z,10.03
2018-10-19T10:42:36.793Z,8.87
2018-10-19T10:45:19.673Z,8.63
2018-10-19T10:48:02.418Z,9.40
2018-10-19T10:50:46.168Z,8.83
2018-10-19T10:53:29.314Z,8.30
2018-10-19T10:56:12.304Z,8.27
2018-10-19T10:58:55.661Z,8.33
2018-10-19T11:01:39.089Z,9.00
2018-10-19T11:04:22.197Z,8.83
2018-10-19T11:07:05.643Z,8.93
2018-10-19T11:09:49.144Z,8.70
2018-10-19T11:12:31.758Z,8.33
2018-10-19T11:15:15.541Z,7.83
2018-10-19T11:17:58.032Z,7.97
2018-10-19T11:20:41.959Z,8.90
2018-10-19T11:23:25.428Z,8.87
2018-10-19T11:26:09.644Z,8.30
2018-10-19T11:28:52.765Z,7.57
2018-10-19T11:31:36.196Z,8.07
2018-10-19T11:34:19.658Z,8.10
2018-10-19T11:37:03.220Z,7.37
2018-10-19T11:39:58.186Z,8.00
2018-10-19T11:42:41.193Z,7.40
2018-10-19T11:45:34.777Z,6.90
2018-10-19T11:48:18.365Z,7.50
2018-10-19T11:51:01.316Z,7.43
2018-10-19T11:53:44.342Z,7.97
2018-10-19T11:56:27.880Z,7.77
2018-10-19T11:59:11.650Z,7.27
2018-10-19T12:01:54.529Z,7.63
2018-10-19T12:04:37.543Z,8.23
2018-10-19T12:07:20.985Z,8.83
2018-10-19T12:10:03.767Z,10.40
2018-10-19T12:12:46.306Z,7.87
2018-10-19T12:15:29.985Z,7.37
2018-10-19T12:18:13.274Z,8.13
2018-10-19T12:20:56.692Z,8.57
2018-10-19T12:23:40.241Z,9.03
2018-10-19T12:26:23.742Z,8.80
2018-10-19T12:29:06.416Z,8.83
2018-10-19T12:32:15.644Z,8.90
2018-10-19T12:36:14.150Z,8.23
2018-10-19T12:38:56.825Z,8.10
2018-10-19T12:41:40.937Z,7.73
2018-10-19T12:44:23.490Z,7.97
2018-10-19T12:47:17.637Z,8.40
2018-10-19T12:50:01.104Z,8.83
2018-10-19T12:52:43.596Z,8.00
2018-10-19T12:55:27.335Z,7.93
2018-10-19T12:58:10.661Z,9.53
2018-10-19T13:01:00.785Z,8.37
2018-10-19T13:03:49.761Z,7.13
2018-10-19T13:06:33.247Z,6.77
2018-10-19T13:09:15.995Z,6.73
2018-10-19T13:11:59.358Z,7.57
2018-10-19T13:14:42.862Z,7.87
2018-10-19T13:17:25.248Z,8.60
2018-10-19T13:20:08.254Z,8.27
2018-10-19T13:22:51.000Z,7.70
2018-10-19T13:25:33.784Z,8.27
2018-10-19T13:28:58.832Z,8.83
2018-10-19T13:31:55.275Z,8.57
2018-10-19T13:34:38.883Z,8.27
2018-10-19T13:37:21.630Z,7.53
2018-10-19T13:40:04.569Z,7.93
2018-10-19T13:42:47.824Z,7.43
2018-10-19T13:45:30.791Z,8.00
2018-10-19T13:48:14.657Z,7.80
2018-10-19T13:50:57.727Z,7.53
2018-10-19T13:53:40.814Z,7.03
2018-10-19T13:56:23.517Z,8.13
2018-10-19T13:59:07.352Z,7.30
2018-10-19T14:01:51.565Z,7.20
2018-10-19T14:04:35.337Z,8.17
2018-10-19T14:07:18.281Z,8.17
2018-10-19T14:10:03.442Z,7.57
2018-10-19T14:12:46.222Z,8.60
2018-10-19T14:15:29.403Z,7.40
2018-10-19T14:18:13.773Z,8.27
2018-10-19T14:20:56.714Z,8.53
2018-10-19T14:23:47.491Z,8.60
2018-10-19T14:26:30.812Z,8.17
2018-10-19T14:29:15.034Z,8.90
2018-10-19T14:31:58.345Z,8.60
2018-10-19T14:34:41.820Z,8.50
2018-10-19T14:37:25.934Z,9.27
2018-10-19T14:40:12.058Z,9.80
2018-10-19T14:42:56.074Z,10.20
2018-10-19T14:45:39.923Z,10.00
2018-10-19T14:48:22.377Z,9.37
2018-10-19T14:51:05.777Z,8.27
2018-10-19T14:53:48.820Z,10.47
2018-10-19T14:56:34.181Z,9.47
2018-10-19T14:59:20.243Z,9.27
2018-10-19T15:02:06.936Z,10.10
2018-10-19T15:04:50.178Z,11.47
2018-10-19T15:07:37.136Z,11.33
2018-10-19T15:10:22.824Z,10.97
2018-10-19T15:13:08.184Z,11.03
2018-10-19T15:15:51.453Z,11.67
2018-10-19T15:18:34.900Z,11.37
2018-10-19T15:21:18.114Z,10.73
2018-10-19T15:24:01.052Z,11.07
2018-10-19T15:26:44.768Z,9.53
2018-10-19T15:29:27.628Z,9.97
2018-10-19T15:32:10.493Z,10.30
2018-10-19T15:34:53.649Z,10.17
2018-10-19T15:37:37.078Z,9.73
2018-10-19T15:40:19.613Z,10.00
2018-10-19T15:43:04.514Z,9.23
2018-10-19T15:45:46.861Z,9.63
2018-10-19T15:48:30.013Z,9.13
2018-10-19T15:51:13.975Z,8.90
2018-10-19T15:53:56.593Z,8.10
2018-10-19T15:56:39.766Z,7.87
2018-10-19T15:59:23.114Z,8.37
2018-10-19T16:02:06.056Z,8.80
2018-10-19T16:04:49.346Z,8.37
2018-10-19T16:07:32.269Z,8.83
2018-10-19T16:10:15.604Z,8.40
2018-10-19T16:12:58.205Z,7.53
2018-10-19T16:15:40.633Z,7.73
2018-10-19T16:18:23.103Z,8.57
2018-10-19T16:21:05.848Z,7.33
2018-10-19T16:23:48.935Z,8.00
2018-10-19T16:26:32.744Z,8.07
2018-10-19T16:29:15.417Z,8.07
2018-10-19T16:31:58.186Z,7.93
2018-10-19T16:34:41.691Z,8.27
2018-10-19T16:37:24.570Z,8.40
2018-10-19T16:40:07.766Z,7.80
2018-10-19T16:42:50.833Z,8.67
2018-10-19T16:45:33.631Z,7.97
2018-10-19T16:48:17.101Z,8.20
2018-10-19T16:51:00.450Z,8.17
2018-10-19T16:53:43.489Z,8.00
2018-10-19T16:56:26.030Z,8.70
2018-10-19T16:59:09.540Z,9.17
2018-10-19T17:01:52.581Z,8.43
2018-10-19T17:04:35.857Z,8.77
2018-10-19T17:07:19.229Z,9.43
2018-10-19T17:10:01.751Z,8.23
2018-10-19T17:12:44.471Z,7.90
2018-10-19T17:15:28.394Z,8.43
2018-10-19T17:18:11.642Z,7.57
2018-10-19T17:20:56.126Z,9.00
2018-10-19T17:23:39.667Z,7.70
2018-10-19T17:26:22.645Z,8.43
2018-10-19T17:29:06.917Z,7.70
2018-10-19T17:31:49.196Z,8.13
2018-10-19T17:34:32.125Z,7.67
2018-10-19T17:37:16.518Z,8.10
2018-10-19T17:39:59.107Z,8.67
2018-10-19T17:42:42.413Z,7.87
2018-10-19T17:45:26.050Z,9.17
2018-10-19T17:48:09.291Z,8.90
2018-10-19T17:50:52.569Z,8.57
2018-10-19T17:53:35.700Z,8.20
2018-10-19T17:56:18.766Z,7.80
2018-10-19T17:59:01.995Z,8.17
2018-10-19T18:01:54.316Z,7.57
2018-10-19T18:04:37.130Z,8.10
2018-10-19T18:07:19.721Z,7.27
2018-10-19T18:10:02.384Z,8.70
2018-10-19T18:12:46.020Z,7.00
2018-10-19T18:15:29.203Z,7.43
2018-10-19T18:18:12.036Z,7.57
2018-10-19T18:20:54.934Z,7.57
2018-10-19T18:23:37.807Z,8.13
2018-10-19T18:26:20.905Z,8.43
2018-10-19T18:29:03.546Z,8.83
2018-10-19T18:31:46.599Z,8.03
2018-10-19T18:34:29.266Z,7.90
2018-10-19T18:37:12.498Z,8.17
2018-10-19T18:39:55.838Z,7.63
2018-10-19T18:42:39.585Z,8.07
2018-10-19T18:45:23.010Z,7.77
2018-10-19T18:48:06.744Z,7.07
2018-10-19T18:50:50.389Z,7.13
2018-10-19T18:53:38.317Z,7.40
2018-10-19T18:56:21.369Z,9.50
2018-10-19T18:59:04.773Z,7.93
2018-10-19T19:01:47.969Z,8.07
2018-10-19T19:04:30.892Z,7.90
2018-10-19T19:07:14.313Z,7.90
2018-10-19T19:10:02.292Z,8.33
2018-10-19T19:12:46.059Z,7.70
2018-10-19T19:15:29.406Z,8.27
2018-10-19T19:18:12.463Z,7.63
2018-10-19T19:20:56.029Z,7.40
2018-10-19T19:23:44.583Z,8.10
2018-10-19T19:26:28.567Z,7.43
2018-10-19T19:29:11.635Z,7.27
2018-10-19T19:31:57.252Z,6.93
2018-10-19T19:34:41.073Z,6.77
2018-10-19T19:37:24.230Z,7.23
2018-10-19T19:40:07.812Z,6.60
2018-10-19T19:42:53.262Z,6.73
2018-10-19T19:45:36.817Z,6.97
2018-10-19T19:48:24.918Z,8.37
2018-10-19T19:51:07.573Z,7.60
2018-10-19T19:53:50.579Z,8.10
2018-10-19T19:56:34.113Z,8.50
2018-10-19T19:59:17.432Z,8.03
2018-10-19T20:02:00.429Z,7.90
2018-10-19T20:04:44.170Z,7.33
2018-10-19T20:07:27.431Z,7.23
2018-10-19T20:10:10.566Z,7.77
2018-10-19T20:12:53.805Z,8.10
2018-10-19T20:15:36.812Z,7.03
2018-10-19T20:18:20.777Z,7.63
2018-10-19T20:21:04.382Z,8.03
2018-10-19T20:23:46.826Z,8.20
2018-10-19T20:26:29.840Z,7.97
2018-10-19T20:29:13.252Z,7.77
2018-10-19T20:31:56.093Z,8.47
2018-10-19T20:34:39.323Z,8.50
2018-10-19T20:37:22.009Z,7.60
2018-10-19T20:40:05.905Z,8.33
2018-10-19T20:42:49.129Z,6.97
2018-10-19T20:45:32.196Z,7.43
2018-10-19T20:48:15.678Z,7.90
2018-10-19T20:50:59.180Z,8.20
2018-10-19T20:53:42.429Z,7.43
2018-10-19T20:56:25.316Z,7.80
2018-10-19T20:59:07.717Z,7.70
2018-10-19T21:01:50.866Z,7.20
2018-10-19T21:04:35.810Z,6.70
2018-10-19T21:07:19.370Z,7.67
2018-10-19T21:10:02.769Z,6.80
2018-10-19T21:12:45.986Z,7.87
2018-10-19T21:15:29.501Z,7.03
2018-10-19T21:18:12.562Z,7.50
2018-10-19T21:20:56.116Z,7.53
2018-10-19T21:23:39.474Z,8.33
2018-10-19T21:26:22.495Z,8.23
2018-10-19T21:29:06.512Z,7.53
2018-10-19T21:31:50.581Z,8.17
2018-10-19T21:34:35.187Z,7.93
2018-10-19T21:37:19.111Z,7.20
2018-10-19T21:40:02.073Z,7.90
2018-10-19T21:42:46.018Z,7.60
2018-10-19T21:45:28.877Z,7.83
2018-10-19T21:48:12.407Z,6.97
2018-10-19T21:50:56.233Z,6.97
2018-10-19T21:53:49.026Z,7.23
2018-10-19T21:56:33.365Z,6.70
2018-10-19T21:59:17.671Z,7.03
2018-10-19T22:02:20.392Z,7.37
2018-10-19T22:05:04.080Z,7.43
2018-10-19T22:07:46.727Z,7.23
2018-10-19T22:10:29.781Z,8.43
2018-10-19T22:13:12.338Z,8.20
2018-10-19T22:15:55.354Z,7.73
2018-10-19T22:18:38.346Z,7.63
2018-10-19T22:21:20.878Z,8.27
2018-10-19T22:24:03.458Z,7.87
2018-10-19T22:26:46.450Z,8.23
2018-10-19T22:29:29.197Z,8.03
2018-10-19T22:32:12.803Z,8.40
2018-10-19T22:34:55.601Z,8.57
2018-10-19T22:37:38.457Z,9.27
2018-10-19T22:40:21.714Z,9.37
2018-10-19T22:43:04.785Z,9.70
2018-10-19T22:45:48.333Z,9.87
2018-10-19T22:48:31.133Z,9.77
2018-10-19T22:51:14.277Z,9.63
2018-10-19T22:53:57.210Z,9.60
2018-10-19T22:56:40.223Z,9.50
2018-10-19T22:59:23.139Z,10.13
2018-10-19T23:02:06.973Z,11.30
2018-10-19T23:04:49.658Z,10.00
2018-10-19T23:07:31.961Z,10.17
2018-10-19T23:10:14.637Z,10.77
2018-10-19T23:12:57.528Z,11.00
2018-10-19T23:15:40.067Z,11.13
2018-10-19T23:18:22.640Z,11.10
2018-10-19T23:21:05.462Z,12.27
2018-10-19T23:23:48.103Z,12.03
2018-10-19T23:26:30.413Z,13.17
2018-10-19T23:29:13.130Z,12.90
2018-10-19T23:31:55.989Z,12.80
2018-10-19T23:34:38.880Z,12.60
2018-10-19T23:41:07.724Z,14.07
2018-10-19T23:43:51.561Z,14.90
2018-10-19T23:46:35.543Z,14.37
2018-10-19T23:49:19.277Z,14.70
2018-10-19T23:52:02.596Z,14.67
2018-10-19T23:54:46.753Z,17.43
2018-10-19T23:57:30.420Z,17.30
